Time;durP1;ratioP1;P1;durP2;ratioP2;P2;SDS_P1;SDS_P2;PMS_P1;PMS_P2;Temp;Humidity;BMP_temperature;BMP_pressure;BME280_temperature;BME280_humidity;BME280_pressure;Samples;Min_cycle;Max_cycle;Signal;HPM_P1;HPM_P2
2024/01/09 00:01:02;;;;;;;0.90;0.65;;;-1.20;99.90;;;;;;5036408;28;20369;-74
2024/01/09 00:03:28;;;;;;;0.52;0.52;;;-1.30;99.90;;;;;;5054233;28;20082;-74
2024/01/09 00:05:53;;;;;;;2.75;1.17;;;-1.20;99.90;;;;;;5057409;28;20037;-74
2024/01/09 00:08:19;;;;;;;0.28;0.28;;;-1.40;99.90;;;;;;5056565;28;20047;-74
2024/01/09 00:10:45;;;;;;;1.15;1.05;;;-1.40;99.90;;;;;;5036628;28;20107;-74
2024/01/09 00:13:11;;;;;;;2.25;0.95;;;-1.40;99.90;;;;;;5053002;28;20033;-74
2024/01/09 00:15:36;;;;;;;1.88;1.77;;;-1.30;99.90;;;;;;5053888;28;20029;-74
2024/01/09 00:18:02;;;;;;;0.20;0.20;;;-1.40;99.90;;;;;;5036158;28;20505;-74
2024/01/09 00:20:28;;;;;;;0.68;0.68;;;-1.30;99.90;;;;;;5052358;28;20091;-74
2024/01/09 00:22:53;;;;;;;1.63;1.13;;;-1.30;99.90;;;;;;5035978;28;20123;-74
2024/01/09 00:25:19;;;;;;;0.20;0.20;;;-1.10;99.90;;;;;;5035823;28;20059;-74
2024/01/09 00:27:46;;;;;;;0.70;0.63;;;-1.10;99.90;;;;;;5054002;28;20071;-74
2024/01/09 00:30:12;;;;;;;1.95;1.85;;;-1.10;99.90;;;;;;5053666;28;20504;-74
2024/01/09 00:32:38;;;;;;;1.95;1.67;;;-1.10;99.90;;;;;;5053582;28;20021;-74
2024/01/09 00:35:08;;;;;;;1.00;0.77;;;-1.20;99.90;;;;;;5052039;28;20071;-73
2024/01/09 00:37:34;;;;;;;0.20;0.20;;;-1.20;99.90;;;;;;5035939;28;20059;-74
2024/01/09 00:39:59;;;;;;;1.55;1.27;;;-1.20;99.90;;;;;;5047112;28;20426;-74
2024/01/09 00:42:25;;;;;;;4.40;0.52;;;-1.40;99.90;;;;;;5046457;28;20564;-74
2024/01/09 00:44:51;;;;;;;0.40;0.40;;;-1.30;99.90;;;;;;5053277;28;20076;-74
2024/01/09 00:47:16;;;;;;;0.32;0.32;;;-1.30;99.90;;;;;;5051904;28;20105;-73
2024/01/09 00:49:46;;;;;;;0.20;0.20;;;-1.50;99.90;;;;;;5052871;28;20174;-74
2024/01/09 00:52:11;;;;;;;2.10;1.88;;;-1.40;99.90;;;;;;5053427;28;20037;-73
2024/01/09 00:54:42;;;;;;;0.73;0.73;;;-1.50;99.90;;;;;;5053324;28;20075;-73
2024/01/09 00:57:07;;;;;;;0.60;0.60;;;-1.50;99.90;;;;;;5035607;28;20076;-73
2024/01/09 00:59:34;;;;;;;0.77;0.68;;;-1.60;99.90;;;;;;5053155;28;20056;-73
2024/01/09 01:02:00;;;;;;;0.43;0.43;;;-1.60;99.90;;;;;;5035231;28;20112;-74
2024/01/09 01:04:25;;;;;;;0.40;0.40;;;-1.40;99.90;;;;;;5034946;28;20542;-73
2024/01/09 01:06:51;;;;;;;1.55;1.40;;;-1.40;99.90;;;;;;5053162;28;20043;-74
2024/01/09 01:09:17;;;;;;;0.60;0.60;;;-1.60;99.90;;;;;;5053392;28;20025;-74
2024/01/09 01:11:42;;;;;;;0.88;0.70;;;-1.60;99.90;;;;;;5052771;28;20437;-74
2024/01/09 01:14:08;;;;;;;2.17;1.38;;;-1.70;99.90;;;;;;5052968;28;20028;-74
2024/01/09 01:16:34;;;;;;;0.20;0.20;;;-1.60;99.90;;;;;;5052968;28;20040;-74
2024/01/09 01:19:00;;;;;;;0.65;0.65;;;-1.80;99.90;;;;;;5034640;28;20033;-74
2024/01/09 01:21:26;;;;;;;0.20;0.20;;;-1.80;99.90;;;;;;5051693;28;20108;-74
2024/01/09 01:23:52;;;;;;;0.60;0.60;;;-1.70;99.90;;;;;;5053282;28;20033;-73
2024/01/09 01:26:18;;;;;;;0.20;0.20;;;-1.70;99.90;;;;;;5038803;28;20040;-73
2024/01/09 01:28:43;;;;;;;4.70;0.52;;;-1.60;99.90;;;;;;5052911;28;20036;-73
2024/01/09 01:31:10;;;;;;;0.20;0.20;;;-1.50;99.90;;;;;;5052532;28;20096;-74
2024/01/09 01:33:36;;;;;;;6.00;1.70;;;-1.40;99.90;;;;;;5050487;28;20021;-74
2024/01/09 01:36:02;;;;;;;1.48;0.60;;;-1.50;99.90;;;;;;5051252;28;20035;-73
2024/01/09 01:38:28;;;;;;;0.40;0.40;;;-1.50;99.90;;;;;;5052460;28;20071;-74
2024/01/09 01:40:54;;;;;;;0.60;0.50;;;-1.60;99.90;;;;;;5018394;28;20104;-73
2024/01/09 01:43:20;;;;;;;0.20;0.20;;;-1.60;99.90;;;;;;5052606;28;20505;-74
2024/01/09 01:45:46;;;;;;;3.08;0.52;;;-1.60;99.90;;;;;;5052752;28;20068;-73
2024/01/09 01:48:11;;;;;;;0.30;0.30;;;-1.60;99.90;;;;;;5052210;28;20113;-74
2024/01/09 01:50:39;;;;;;;0.30;0.30;;;-1.60;99.90;;;;;;5052408;28;20196;-74
2024/01/09 01:53:06;;;;;;;0.50;0.50;;;-1.70;99.90;;;;;;5052500;28;20017;-73
2024/01/09 01:55:34;;;;;;;2.78;0.60;;;-1.60;99.90;;;;;;5052533;28;20021;-73
2024/01/09 01:58:02;;;;;;;0.28;0.28;;;-1.70;99.90;;;;;;5052629;28;20031;-74
2024/01/09 02:00:29;;;;;;;0.50;0.50;;;-1.70;99.90;;;;;;5055883;28;20534;-73
2024/01/09 02:02:55;;;;;;;1.33;1.15;;;-1.60;99.90;;;;;;5056561;28;20025;-74
2024/01/09 02:05:24;;;;;;;0.40;0.40;;;-1.70;99.90;;;;;;5056354;28;20024;-73
2024/01/09 02:07:53;;;;;;;0.40;0.40;;;-1.80;99.90;;;;;;5056573;28;20561;-73
2024/01/09 02:10:22;;;;;;;1.45;0.88;;;-1.90;99.90;;;;;;5056319;28;20037;-73
2024/01/09 02:12:49;;;;;;;0.28;0.28;;;-1.80;99.90;;;;;;5056517;28;20033;-74
2024/01/09 02:15:15;;;;;;;0.38;0.38;;;-1.60;99.90;;;;;;5038416;28;20040;-73
2024/01/09 02:17:42;;;;;;;0.35;0.35;;;-1.80;99.90;;;;;;5038509;28;20060;-74
2024/01/09 02:20:10;;;;;;;0.60;0.60;;;-1.90;99.90;;;;;;5038607;28;20033;-74
2024/01/09 02:22:35;;;;;;;0.30;0.30;;;-1.80;99.90;;;;;;5038390;28;20025;-74
2024/01/09 02:25:02;;;;;;;1.00;1.00;;;-1.70;99.90;;;;;;5038204;28;20512;-74
2024/01/09 02:27:56;;;;;;;0.20;0.20;;;-1.90;99.90;;;;;;5055774;28;20029;-74
2024/01/09 02:30:23;;;;;;;0.20;0.20;;;-1.90;99.90;;;;;;5055793;28;20044;-74
2024/01/09 02:32:51;;;;;;;0.75;0.75;;;-2.00;99.90;;;;;;5038309;28;20025;-74
2024/01/09 02:35:17;;;;;;;1.45;0.85;;;-1.90;99.90;;;;;;5056120;28;20063;-74
2024/01/09 02:37:43;;;;;;;0.40;0.40;;;-1.90;99.90;;;;;;5055723;28;20020;-73
2024/01/09 02:40:09;;;;;;;1.02;0.52;;;-2.00;99.90;;;;;;5055979;28;20029;-74
2024/01/09 02:42:35;;;;;;;1.85;1.15;;;-2.00;99.90;;;;;;5055412;28;20021;-74
2024/01/09 02:45:01;;;;;;;0.60;0.60;;;-2.00;99.90;;;;;;5055589;28;20025;-74
2024/01/09 02:47:27;;;;;;;0.95;0.63;;;-1.90;99.90;;;;;;5037883;28;20052;-74
2024/01/09 02:49:52;;;;;;;0.20;0.20;;;-1.80;99.90;;;;;;5054432;28;20033;-74
2024/01/09 02:52:18;;;;;;;0.20;0.20;;;-1.80;99.90;;;;;;5037424;28;20112;-74
2024/01/09 02:54:45;;;;;;;0.90;0.90;;;-1.90;99.90;;;;;;5054412;28;20484;-74
2024/01/09 02:57:12;;;;;;;1.77;0.82;;;-1.90;99.90;;;;;;5037765;28;20429;-73
2024/01/09 02:59:38;;;;;;;0.30;0.30;;;-1.90;99.90;;;;;;5053735;28;20083;-74
2024/01/09 03:02:05;;;;;;;0.80;0.80;;;-2.00;99.90;;;;;;5055415;28;20029;-74
2024/01/09 03:04:30;;;;;;;2.05;0.68;;;-1.90;99.90;;;;;;5055454;28;20112;-74
2024/01/09 03:06:56;;;;;;;0.95;0.77;;;-2.00;99.90;;;;;;5055308;28;20493;-74
2024/01/09 03:09:22;;;;;;;2.63;1.75;;;-1.90;99.90;;;;;;5054933;28;20501;-74
2024/01/09 03:11:48;;;;;;;0.40;0.40;;;-1.90;99.90;;;;;;5055519;28;20099;-74
2024/01/09 03:14:14;;;;;;;0.57;0.57;;;-1.90;99.90;;;;;;5054882;28;20039;-74
2024/01/09 03:16:40;;;;;;;2.47;0.98;;;-1.80;99.90;;;;;;5053694;28;20132;-74
2024/01/09 03:19:05;;;;;;;0.73;0.73;;;-1.90;99.90;;;;;;5037425;28;20470;-74
2024/01/09 03:21:32;;;;;;;0.45;0.45;;;-2.00;99.90;;;;;;5037317;28;20029;-74
2024/01/09 03:23:58;;;;;;;1.55;0.85;;;-2.00;99.90;;;;;;5054913;28;20036;-74
2024/01/09 03:26:23;;;;;;;0.30;0.30;;;-2.00;99.90;;;;;;5037288;28;20037;-74
2024/01/09 03:28:50;;;;;;;0.30;0.30;;;-1.90;99.90;;;;;;5054325;28;20033;-74
2024/01/09 03:31:23;;;;;;;2.65;1.40;;;-2.00;99.90;;;;;;5055471;28;20021;-74
2024/01/09 03:33:49;;;;;;;0.25;0.25;;;-2.00;99.90;;;;;;5054682;28;20017;-74
2024/01/09 03:36:16;;;;;;;1.45;0.82;;;-2.10;99.90;;;;;;5054739;28;20493;-74
2024/01/09 03:38:42;;;;;;;0.95;0.95;;;-2.10;99.90;;;;;;5054665;28;20028;-74
2024/01/09 03:41:08;;;;;;;0.20;0.20;;;-2.10;99.90;;;;;;5054808;28;20009;-74
2024/01/09 03:43:34;;;;;;;7.65;1.00;;;-2.10;99.90;;;;;;5054458;28;20541;-74
2024/01/09 03:46:00;;;;;;;0.43;0.43;;;-2.20;99.90;;;;;;5054301;28;20032;-74
2024/01/09 03:48:26;;;;;;;0.30;0.30;;;-2.20;99.90;;;;;;5053264;28;20112;-74
2024/01/09 03:50:51;;;;;;;0.32;0.32;;;-2.20;99.90;;;;;;5054797;28;20358;-73
2024/01/09 03:53:17;;;;;;;0.47;0.30;;;-2.10;99.90;;;;;;5053011;28;20033;-74
2024/01/09 03:55:43;;;;;;;0.30;0.30;;;-2.10;99.90;;;;;;5054794;28;20029;-74
2024/01/09 03:58:11;;;;;;;0.22;0.22;;;-2.10;99.90;;;;;;5036089;28;20009;-74
2024/01/09 04:00:38;;;;;;;0.45;0.45;;;-2.10;99.90;;;;;;5036251;28;20601;-74
2024/01/09 04:03:05;;;;;;;0.57;0.57;;;-2.10;99.90;;;;;;5054257;28;20454;-73
2024/01/09 04:05:31;;;;;;;0.30;0.30;;;-2.00;99.90;;;;;;5036388;28;20029;-74
2024/01/09 04:07:57;;;;;;;0.40;0.40;;;-2.10;99.90;;;;;;5054213;28;20039;-73
2024/01/09 04:10:23;;;;;;;0.20;0.20;;;-2.10;99.90;;;;;;5054218;28;20021;-73
2024/01/09 04:12:49;;;;;;;0.20;0.20;;;-2.00;99.90;;;;;;5053891;28;20028;-73
2024/01/09 04:15:15;;;;;;;0.73;0.73;;;-2.10;99.90;;;;;;5053711;28;20028;-74
2024/01/09 04:17:41;;;;;;;0.22;0.22;;;-2.30;99.90;;;;;;5054113;28;20073;-73
2024/01/09 04:20:11;;;;;;;0.20;0.20;;;-2.20;99.90;;;;;;5053838;28;20028;-74
2024/01/09 04:22:36;;;;;;;0.65;0.65;;;-2.10;99.90;;;;;;5053331;28;20420;-73
2024/01/09 04:25:02;;;;;;;0.30;0.30;;;-2.20;99.90;;;;;;5052419;28;20036;-73
2024/01/09 04:27:28;;;;;;;0.65;0.65;;;-2.00;99.90;;;;;;5053699;28;20024;-74
2024/01/09 04:29:54;;;;;;;0.80;0.80;;;-2.10;99.90;;;;;;5053862;28;20028;-73
2024/01/09 04:32:19;;;;;;;0.98;0.82;;;-2.10;99.90;;;;;;5035629;28;20029;-73
2024/01/09 04:34:46;;;;;;;0.20;0.20;;;-2.00;99.90;;;;;;5035815;28;20536;-73
2024/01/09 04:37:11;;;;;;;0.38;0.38;;;-2.00;99.90;;;;;;5053580;28;20025;-73
2024/01/09 04:39:37;;;;;;;0.32;0.32;;;-2.00;99.90;;;;;;5053665;28;20074;-74
2024/01/09 04:42:03;;;;;;;1.52;1.42;;;-2.20;99.90;;;;;;5053108;28;20056;-73
2024/01/09 04:44:29;;;;;;;0.30;0.30;;;-2.20;99.90;;;;;;5035357;28;20017;-73
2024/01/09 04:46:55;;;;;;;0.57;0.43;;;-2.30;99.90;;;;;;5035852;28;20037;-73
2024/01/09 04:49:20;;;;;;;0.45;0.45;;;-2.30;99.90;;;;;;5053099;28;20041;-73
2024/01/09 04:51:46;;;;;;;2.15;1.05;;;-2.30;99.90;;;;;;5053543;28;20033;-73
2024/01/09 04:54:12;;;;;;;1.27;0.68;;;-2.30;99.90;;;;;;5053354;28;20091;-73
2024/01/09 04:56:38;;;;;;;0.30;0.30;;;-2.30;99.90;;;;;;5052957;28;20099;-73
2024/01/09 04:59:03;;;;;;;0.25;0.25;;;-2.30;99.90;;;;;;5052135;28;20057;-73
2024/01/09 05:01:29;;;;;;;0.40;0.40;;;-2.30;99.90;;;;;;5053101;28;20033;-73
2024/01/09 05:03:55;;;;;;;0.82;0.70;;;-2.30;99.90;;;;;;5051628;28;20036;-73
2024/01/09 05:06:22;;;;;;;0.98;0.95;;;-2.30;99.90;;;;;;5035183;28;20105;-73
2024/01/09 05:08:47;;;;;;;0.57;0.57;;;-2.30;99.90;;;;;;5053162;28;20469;-74
2024/01/09 05:11:13;;;;;;;0.20;0.20;;;-2.30;99.90;;;;;;5052785;28;20031;-74
2024/01/09 05:13:39;;;;;;;0.40;0.40;;;-2.40;99.90;;;;;;5053087;28;20043;-73
2024/01/09 05:16:05;;;;;;;0.47;0.47;;;-2.30;99.90;;;;;;5052748;28;20375;-73
2024/01/09 05:18:32;;;;;;;0.73;0.40;;;-2.30;99.90;;;;;;5052660;28;20032;-73
2024/01/09 05:20:57;;;;;;;0.30;0.30;;;-2.30;99.90;;;;;;5034950;28;20063;-73
2024/01/09 05:23:23;;;;;;;1.38;1.27;;;-2.40;99.90;;;;;;5052901;28;20017;-73
2024/01/09 05:25:49;;;;;;;0.30;0.30;;;-2.50;99.90;;;;;;5018149;28;20458;-73
2024/01/09 05:28:16;;;;;;;1.92;0.47;;;-2.30;99.90;;;;;;5052768;28;20116;-74
2024/01/09 05:30:42;;;;;;;1.77;1.48;;;-2.20;99.90;;;;;;5034873;28;20059;-74
2024/01/09 05:33:08;;;;;;;0.30;0.30;;;-2.40;99.90;;;;;;5052764;28;20024;-74
2024/01/09 05:35:34;;;;;;;0.30;0.30;;;-2.40;99.90;;;;;;5034798;28;20100;-74
2024/01/09 05:38:01;;;;;;;2.30;0.73;;;-2.40;99.90;;;;;;5052796;28;20052;-74
2024/01/09 05:40:27;;;;;;;1.08;0.98;;;-2.40;99.90;;;;;;5052145;28;20032;-74
2024/01/09 05:42:53;;;;;;;0.20;0.20;;;-2.30;99.90;;;;;;5052655;28;20031;-74
2024/01/09 05:45:19;;;;;;;0.35;0.35;;;-2.40;99.90;;;;;;5052685;28;20044;-73
2024/01/09 05:47:45;;;;;;;0.30;0.30;;;-2.40;99.90;;;;;;5052338;28;20032;-73
2024/01/09 05:50:11;;;;;;;0.28;0.28;;;-2.50;99.90;;;;;;5052631;28;20120;-73
2024/01/09 05:52:37;;;;;;;0.20;0.20;;;-2.50;99.90;;;;;;5052603;28;20028;-73
2024/01/09 05:55:05;;;;;;;0.95;0.95;;;-2.50;99.90;;;;;;5034566;28;20036;-73
2024/01/09 05:57:31;;;;;;;0.28;0.28;;;-2.50;99.90;;;;;;5052383;28;20311;-72
2024/01/09 05:59:57;;;;;;;0.30;0.30;;;-2.70;99.90;;;;;;5052018;28;20017;-72
2024/01/09 06:02:23;;;;;;;0.20;0.20;;;-2.60;99.90;;;;;;5042834;28;20025;-72
2024/01/09 06:04:49;;;;;;;0.40;0.40;;;-2.60;99.90;;;;;;5051141;28;20033;-72
2024/01/09 06:07:17;;;;;;;0.28;0.28;;;-2.50;99.90;;;;;;5051252;28;20033;-72
2024/01/09 06:09:44;;;;;;;0.77;0.77;;;-2.30;99.90;;;;;;5034539;28;20033;-72
2024/01/09 06:12:09;;;;;;;1.08;0.98;;;-2.40;99.90;;;;;;5052260;28;20497;-72
2024/01/09 06:14:35;;;;;;;0.38;0.38;;;-2.50;99.90;;;;;;5034265;28;20028;-72
2024/01/09 06:17:01;;;;;;;0.20;0.20;;;-2.60;99.90;;;;;;5052099;28;20052;-72
2024/01/09 06:19:27;;;;;;;4.28;3.25;;;-2.60;99.90;;;;;;5052139;28;20025;-74
2024/01/09 06:21:52;;;;;;;0.35;0.35;;;-2.60;99.90;;;;;;5051730;28;20036;-74
2024/01/09 06:24:19;;;;;;;0.40;0.40;;;-2.60;99.90;;;;;;5052156;28;20029;-74
2024/01/09 06:26:46;;;;;;;0.22;0.22;;;-2.60;99.90;;;;;;5052130;28;20072;-74
2024/01/09 06:29:11;;;;;;;2.05;0.45;;;-2.60;99.90;;;;;;5052114;28;20029;-74
2024/01/09 06:31:38;;;;;;;0.20;0.20;;;-2.50;99.90;;;;;;5051762;28;20071;-74
2024/01/09 06:34:04;;;;;;;0.88;0.52;;;-2.40;99.90;;;;;;5037518;28;20105;-74
2024/01/09 06:36:30;;;;;;;0.75;0.70;;;-2.50;99.90;;;;;;5041966;28;20104;-73
2024/01/09 06:38:56;;;;;;;0.60;0.60;;;-2.60;99.90;;;;;;5050222;28;20104;-73
2024/01/09 06:41:22;;;;;;;1.85;1.75;;;-2.60;99.90;;;;;;5050678;28;20021;-73
2024/01/09 06:43:48;;;;;;;0.40;0.40;;;-2.60;99.90;;;;;;5051981;28;20109;-73
2024/01/09 06:46:14;;;;;;;0.57;0.57;;;-2.60;99.90;;;;;;5054982;28;20112;-73
2024/01/09 06:48:40;;;;;;;0.90;0.90;;;-2.50;99.90;;;;;;5055693;28;20422;-73
2024/01/09 06:51:06;;;;;;;0.38;0.38;;;-2.50;99.90;;;;;;5055403;28;20062;-73
2024/01/09 06:53:31;;;;;;;0.68;0.68;;;-2.50;99.90;;;;;;5055647;28;20075;-74
2024/01/09 06:55:57;;;;;;;0.30;0.30;;;-2.70;99.90;;;;;;5055738;28;20037;-74
2024/01/09 06:58:23;;;;;;;1.17;0.47;;;-2.70;99.90;;;;;;5055108;28;20025;-74
2024/01/09 07:00:49;;;;;;;0.32;0.32;;;-2.70;99.90;;;;;;5055557;28;20029;-73
2024/01/09 07:03:15;;;;;;;0.85;0.77;;;-2.70;99.90;;;;;;5055171;28;20025;-73
2024/01/09 07:05:43;;;;;;;0.88;0.88;;;-2.70;99.90;;;;;;5055311;28;20166;-73
2024/01/09 07:08:09;;;;;;;0.57;0.57;;;-2.60;99.90;;;;;;5055062;28;20059;-73
2024/01/09 07:10:36;;;;;;;1.05;0.93;;;-2.60;99.90;;;;;;5037664;28;20029;-73
2024/01/09 07:13:01;;;;;;;1.33;0.40;;;-2.50;99.90;;;;;;5055368;28;20021;-73
2024/01/09 07:15:27;;;;;;;2.00;1.27;;;-2.50;99.90;;;;;;5054925;28;20025;-74
2024/01/09 07:17:53;;;;;;;0.30;0.30;;;-2.50;99.90;;;;;;5055275;28;20045;-73
2024/01/09 07:20:19;;;;;;;1.95;1.13;;;-2.60;99.90;;;;;;5054748;28;20036;-73
2024/01/09 07:22:45;;;;;;;0.20;0.20;;;-2.70;99.90;;;;;;5055108;28;20033;-73
2024/01/09 07:25:11;;;;;;;0.30;0.30;;;-2.60;99.90;;;;;;5054843;28;20112;-73
2024/01/09 07:27:37;;;;;;;0.60;0.60;;;-2.70;99.90;;;;;;5053881;28;20052;-74
2024/01/09 07:30:04;;;;;;;2.33;0.70;;;-2.50;99.90;;;;;;5037205;28;20076;-73
2024/01/09 07:32:29;;;;;;;0.45;0.45;;;-2.70;99.90;;;;;;5054897;28;20103;-73
2024/01/09 07:34:55;;;;;;;0.20;0.20;;;-2.60;99.90;;;;;;5053462;28;20116;-73
2024/01/09 07:37:21;;;;;;;1.42;1.33;;;-2.50;99.90;;;;;;5054155;28;20037;-73
2024/01/09 07:39:48;;;;;;;2.75;1.33;;;-2.50;99.90;;;;;;5054631;28;20075;-73
2024/01/09 07:42:14;;;;;;;0.30;0.30;;;-2.50;99.90;;;;;;5053525;28;20029;-73
2024/01/09 07:44:40;;;;;;;0.50;0.50;;;-2.50;99.90;;;;;;5054110;28;20100;-73
2024/01/09 07:47:07;;;;;;;0.40;0.40;;;-2.40;99.90;;;;;;5054556;28;20045;-76
2024/01/09 07:49:33;;;;;;;0.20;0.20;;;-2.50;99.90;;;;;;5053155;28;20033;-74
2024/01/09 07:51:59;;;;;;;0.65;0.65;;;-2.60;99.90;;;;;;5054780;28;20039;-73
2024/01/09 07:54:25;;;;;;;6.10;0.60;;;-2.60;99.90;;;;;;5054364;28;20029;-74
2024/01/09 07:56:51;;;;;;;0.98;0.68;;;-2.60;99.90;;;;;;5053621;28;20121;-74
2024/01/09 07:59:17;;;;;;;0.73;0.73;;;-2.50;99.90;;;;;;5054261;28;20558;-74
2024/01/09 08:01:43;;;;;;;0.90;0.80;;;-2.60;99.90;;;;;;5054350;28;20037;-73
2024/01/09 08:04:10;;;;;;;0.77;0.77;;;-2.50;99.90;;;;;;5036264;28;20029;-74
2024/01/09 08:06:36;;;;;;;0.65;0.65;;;-2.50;99.90;;;;;;5054303;28;20032;-73
2024/01/09 08:09:02;;;;;;;1.15;1.00;;;-2.50;99.90;;;;;;5054264;28;20115;-74
2024/01/09 08:11:28;;;;;;;0.73;0.73;;;-2.50;99.90;;;;;;5054119;28;20029;-74
2024/01/09 08:13:53;;;;;;;0.30;0.30;;;-2.50;99.90;;;;;;5052729;28;20025;-74
2024/01/09 08:16:19;;;;;;;0.20;0.20;;;-2.50;99.90;;;;;;5054178;28;20032;-74
2024/01/09 08:18:45;;;;;;;1.02;0.90;;;-2.50;99.90;;;;;;5052487;28;20437;-74
2024/01/09 08:21:12;;;;;;;1.65;0.82;;;-2.40;99.90;;;;;;5053703;28;20031;-72
2024/01/09 08:23:37;;;;;;;0.82;0.82;;;-2.50;99.90;;;;;;5052411;28;20028;-72
2024/01/09 08:26:03;;;;;;;0.40;0.40;;;-2.40;99.90;;;;;;5053920;28;20118;-72
2024/01/09 08:28:29;;;;;;;0.80;0.57;;;-2.40;99.90;;;;;;5053768;28;20029;-75
2024/01/09 08:30:55;;;;;;;2.72;0.45;;;-2.40;99.90;;;;;;5053857;28;20029;-74
2024/01/09 08:33:20;;;;;;;6.22;1.33;;;-2.30;99.90;;;;;;5053601;28;20040;-74
2024/01/09 08:35:50;;;;;;;1.40;1.30;;;-2.20;99.90;;;;;;5053536;28;20032;-74
2024/01/09 08:38:17;;;;;;;0.82;0.82;;;-2.10;99.90;;;;;;5053617;28;20063;-74
2024/01/09 08:40:44;;;;;;;0.98;0.98;;;-2.10;99.90;;;;;;5053610;28;20029;-74
2024/01/09 08:43:09;;;;;;;2.20;2.00;;;-2.20;99.90;;;;;;5040295;28;20013;-75
2024/01/09 08:45:36;;;;;;;0.77;0.55;;;-2.30;99.90;;;;;;5053481;28;20102;-75
2024/01/09 08:48:01;;;;;;;2.13;0.82;;;-2.30;99.90;;;;;;5035418;28;20029;-75
2024/01/09 08:50:27;;;;;;;2.90;1.55;;;-2.20;99.90;;;;;;5053345;28;20039;-75
2024/01/09 08:52:54;;;;;;;0.40;0.40;;;-2.20;99.90;;;;;;5035709;28;20030;-74
2024/01/09 08:55:20;;;;;;;0.90;0.85;;;-2.10;99.90;;;;;;5053157;28;20545;-74
2024/01/09 08:57:46;;;;;;;0.30;0.30;;;-2.10;99.90;;;;;;5053500;28;20112;-75
2024/01/09 09:00:13;;;;;;;0.65;0.65;;;-1.80;99.90;;;;;;5053250;28;20021;-74
2024/01/09 09:02:39;;;;;;;0.57;0.57;;;-1.80;99.90;;;;;;5053029;28;20029;-73
2024/01/09 09:05:05;;;;;;;0.75;0.75;;;-1.70;99.90;;;;;;5053062;28;20362;-73
2024/01/09 09:07:31;;;;;;;0.75;0.70;;;-1.60;99.90;;;;;;5052875;28;20049;-74
2024/01/09 09:09:57;;;;;;;0.20;0.20;;;-1.40;99.90;;;;;;5052794;28;20072;-73
2024/01/09 09:12:25;;;;;;;0.43;0.43;;;-1.30;99.90;;;;;;5052330;28;20031;-73
2024/01/09 09:14:51;;;;;;;0.30;0.30;;;-1.20;99.90;;;;;;5052853;28;20103;-73
2024/01/09 09:17:18;;;;;;;5.85;1.10;;;-0.90;99.90;;;;;;5052886;28;20540;-74
2024/01/09 09:19:44;;;;;;;0.50;0.50;;;-0.60;99.90;;;;;;5053203;28;20025;-74
2024/01/09 09:22:10;;;;;;;1.17;0.55;;;-0.40;99.90;;;;;;5035097;28;20362;-71
2024/01/09 09:24:36;;;;;;;2.47;2.30;;;-0.10;99.90;;;;;;5052791;28;20051;-73
2024/01/09 09:27:02;;;;;;;0.95;0.60;;;-0.10;99.90;;;;;;5052850;28;20033;-73
2024/01/09 09:29:29;;;;;;;14.90;1.42;;;0.10;99.90;;;;;;5051473;28;20032;-72
2024/01/09 09:31:55;;;;;;;0.50;0.50;;;0.50;99.90;;;;;;5052395;28;20024;-71
2024/01/09 09:34:20;;;;;;;0.20;0.20;;;0.70;99.90;;;;;;5052499;28;20021;-71
2024/01/09 09:36:46;;;;;;;0.98;0.90;;;0.60;99.70;;;;;;5052299;28;20393;-72
2024/01/09 09:39:13;;;;;;;2.40;1.80;;;0.60;99.60;;;;;;5033828;28;20032;-72
2024/01/09 09:41:43;;;;;;;1.45;0.82;;;0.80;99.10;;;;;;5052433;28;20024;-72
2024/01/09 09:44:13;;;;;;;2.60;2.05;;;0.80;99.00;;;;;;5052864;28;20115;-72
2024/01/09 09:46:41;;;;;;;0.10;0.10;;;0.90;98.60;;;;;;5052641;28;20043;-72
2024/01/09 09:49:11;;;;;;;5.35;1.58;;;1.00;98.50;;;;;;5051655;28;20029;-72
2024/01/09 09:51:38;;;;;;;0.52;0.52;;;0.70;98.90;;;;;;5052074;28;20025;-71
2024/01/09 09:54:05;;;;;;;1.10;1.00;;;1.00;98.60;;;;;;5034905;28;20032;-72
2024/01/09 09:56:31;;;;;;;0.70;0.70;;;1.10;98.50;;;;;;5052771;28;20083;-72
2024/01/09 09:58:57;;;;;;;2.78;1.25;;;1.10;98.00;;;;;;5034707;28;20127;-71
2024/01/09 10:01:23;;;;;;;0.10;0.10;;;1.30;98.00;;;;;;5052046;28;20064;-72
2024/01/09 10:04:01;;;;;;;0.10;0.10;;;1.50;97.60;;;;;;5052469;28;20060;-72
2024/01/09 10:06:28;;;;;;;1.02;1.02;;;2.00;96.90;;;;;;5052168;28;20118;-72
2024/01/09 10:08:56;;;;;;;0.13;0.13;;;2.00;97.00;;;;;;5034687;28;20061;-72
2024/01/09 10:11:23;;;;;;;1.73;1.13;;;2.60;96.40;;;;;;5034686;28;20033;-72
2024/01/09 10:13:49;;;;;;;0.28;0.28;;;2.40;96.20;;;;;;5052198;28;20025;-72
2024/01/09 10:16:15;;;;;;;1.83;1.73;;;2.20;96.10;;;;;;5052092;28;20033;-71
2024/01/09 10:18:41;;;;;;;0.85;0.80;;;2.40;96.00;;;;;;5052040;28;20022;-71
2024/01/09 10:21:07;;;;;;;1.48;1.20;;;2.80;95.40;;;;;;5054008;28;20051;-71
2024/01/09 10:23:39;;;;;;;0.43;0.43;;;2.90;95.10;;;;;;5056146;28;20474;-72
2024/01/09 10:26:11;;;;;;;0.25;0.25;;;3.40;95.20;;;;;;5038493;28;20513;-72
2024/01/09 10:28:38;;;;;;;3.33;0.80;;;3.70;94.40;;;;;;5055625;28;20342;-71
2024/01/09 10:31:08;;;;;;;0.00;0.00;;;3.60;94.20;;;;;;5056520;28;20029;-71
2024/01/09 10:33:40;;;;;;;0.45;0.45;;;3.50;94.50;;;;;;5055768;28;20028;-72
2024/01/09 10:36:06;;;;;;;1.67;1.40;;;4.00;94.30;;;;;;5055023;28;20033;-72
2024/01/09 10:38:33;;;;;;;0.00;0.00;;;3.90;93.90;;;;;;5055948;28;20485;-72
2024/01/09 10:41:16;;;;;;;1.02;0.93;;;4.00;93.60;;;;;;5055779;28;20031;-72
2024/01/09 10:43:43;;;;;;;0.35;0.35;;;4.10;93.20;;;;;;5055439;28;20024;-72
2024/01/09 10:46:10;;;;;;;2.50;1.52;;;4.30;93.30;;;;;;5056361;28;20462;-72
2024/01/09 10:48:37;;;;;;;0.82;0.80;;;4.00;92.80;;;;;;5055769;28;20033;-72
2024/01/09 10:51:03;;;;;;;4.13;2.05;;;4.00;93.10;;;;;;5037978;28;20021;-72
2024/01/09 10:53:33;;;;;;;0.10;0.10;;;4.10;92.90;;;;;;5055696;28;20036;-72
2024/01/09 10:56:01;;;;;;;0.63;0.55;;;4.60;92.80;;;;;;5054808;28;20033;-71
2024/01/09 10:58:27;;;;;;;1.67;1.42;;;5.00;92.50;;;;;;5055384;28;20412;-71
2024/01/09 11:00:53;;;;;;;0.20;0.20;;;4.90;92.30;;;;;;5055551;28;20035;-72
2024/01/09 11:03:19;;;;;;;0.98;0.47;;;5.10;92.70;;;;;;5054188;28;20458;-72
2024/01/09 11:05:52;;;;;;;0.13;0.13;;;5.50;92.50;;;;;;5055377;28;20417;-72
2024/01/09 11:08:19;;;;;;;0.20;0.20;;;5.30;91.80;;;;;;5055212;28;20092;-72
2024/01/09 11:10:45;;;;;;;1.02;0.55;;;5.70;92.20;;;;;;5055499;28;20094;-73
2024/01/09 11:13:13;;;;;;;0.35;0.35;;;5.50;91.30;;;;;;5054931;28;20048;-72
2024/01/09 11:15:47;;;;;;;3.75;1.85;;;4.60;91.50;;;;;;5053961;28;20046;-72
2024/01/09 11:18:16;;;;;;;0.08;0.08;;;4.00;92.20;;;;;;5055022;28;20381;-72
2024/01/09 11:20:42;;;;;;;1.45;1.35;;;4.20;92.40;;;;;;5055292;28;20045;-72
2024/01/09 11:23:11;;;;;;;6.32;0.70;;;4.50;92.10;;;;;;5037302;28;20428;-72
2024/01/09 11:25:37;;;;;;;1.55;1.45;;;4.80;91.70;;;;;;5037096;28;20029;-72
2024/01/09 11:28:03;;;;;;;1.30;1.17;;;5.20;91.70;;;;;;5037160;28;20025;-73
2024/01/09 11:30:31;;;;;;;1.48;1.42;;;5.60;91.70;;;;;;5054816;28;20025;-72
2024/01/09 11:32:58;;;;;;;0.40;0.40;;;6.40;90.50;;;;;;5055152;28;20028;-72
2024/01/09 11:35:27;;;;;;;0.80;0.80;;;6.40;90.30;;;;;;5054735;28;20017;-71
2024/01/09 11:37:55;;;;;;;0.47;0.47;;;6.30;90.10;;;;;;5055124;28;20029;-72
2024/01/09 11:40:22;;;;;;;0.10;0.10;;;6.80;89.30;;;;;;5055139;28;20036;-72
2024/01/09 11:42:52;;;;;;;0.20;0.20;;;6.50;88.60;;;;;;5054493;28;20021;-72
2024/01/09 11:45:22;;;;;;;0.32;0.32;;;6.80;88.60;;;;;;5053049;28;20068;-72
2024/01/09 11:47:49;;;;;;;2.30;1.17;;;6.90;88.40;;;;;;5054613;28;20037;-72
2024/01/09 11:50:16;;;;;;;0.10;0.10;;;7.20;86.40;;;;;;5054758;28;20027;-72
2024/01/09 11:52:42;;;;;;;0.05;0.05;;;6.90;87.50;;;;;;5054726;28;20470;-72
2024/01/09 11:55:10;;;;;;;0.65;0.52;;;7.70;87.10;;;;;;5054576;28;20026;-72
2024/01/09 11:57:38;;;;;;;0.38;0.38;;;8.20;85.80;;;;;;5054159;28;20127;-72
2024/01/09 12:00:06;;;;;;;0.30;0.30;;;7.00;85.40;;;;;;5054159;28;20029;-72
2024/01/09 12:02:38;;;;;;;0.47;0.40;;;7.00;85.70;;;;;;5054490;28;20070;-72
2024/01/09 12:05:05;;;;;;;1.30;0.95;;;7.50;85.60;;;;;;5053951;28;20040;-71
2024/01/09 12:07:33;;;;;;;5.88;1.77;;;8.20;84.60;;;;;;5054207;28;20068;-71
2024/01/09 12:10:04;;;;;;;1.67;1.58;;;8.10;84.10;;;;;;5053771;28;20071;-73
2024/01/09 12:12:29;;;;;;;0.73;0.73;;;8.20;82.90;;;;;;5054257;28;20094;-72
2024/01/09 12:14:58;;;;;;;3.33;0.98;;;8.40;83.40;;;;;;5053689;28;20482;-71
2024/01/09 12:17:33;;;;;;;0.32;0.32;;;8.00;82.60;;;;;;5054092;28;20463;-71
2024/01/09 12:20:00;;;;;;;0.15;0.15;;;8.70;82.70;;;;;;5053888;28;20021;-72
2024/01/09 12:22:26;;;;;;;0.28;0.28;;;8.90;81.00;;;;;;5052998;28;20020;-72
2024/01/09 12:24:53;;;;;;;0.10;0.10;;;9.20;81.30;;;;;;5053539;28;20025;-72
2024/01/09 12:27:21;;;;;;;0.15;0.15;;;9.20;80.20;;;;;;5053894;28;20386;-72
2024/01/09 12:29:47;;;;;;;0.57;0.50;;;8.90;80.80;;;;;;5053646;28;20025;-72
2024/01/09 12:32:14;;;;;;;0.95;0.95;;;9.00;81.00;;;;;;5035902;28;20025;-72
2024/01/09 12:34:40;;;;;;;0.17;0.17;;;9.60;80.30;;;;;;5053747;28;20100;-72
2024/01/09 12:37:08;;;;;;;1.83;1.13;;;8.90;79.60;;;;;;5053822;28;20116;-71
2024/01/09 12:39:37;;;;;;;0.60;0.60;;;9.00;79.70;;;;;;5035490;28;20087;-71
2024/01/09 12:42:06;;;;;;;1.75;1.45;;;9.30;78.70;;;;;;5035466;28;20025;-72
2024/01/09 12:44:33;;;;;;;0.47;0.15;;;9.10;79.30;;;;;;5053265;28;20043;-72
2024/01/09 12:47:00;;;;;;;0.40;0.40;;;9.20;79.50;;;;;;5052339;28;20041;-72